Elizabeth Mc Allister — WDB7652 — position and weather

sailwx.info

Track history (hours):
 
Tides and Currents Weather Stations Pressure Air Temp Water Temp Dewpoint Dewpoint Depression Visibility Wind Speed Wind Dir Waves Ship Positions

Elizabeth Mc Allister

Owner: MC ALLISTER TOWING & TRANSPORTATION INC, NEW YORK, NY. More information available from US FCC via Universal Licensing System and Coast Guard Vessel Documentation Center.

Last reported at 2014-Nov-25 01:33 UTC. Time now 2014-Nov-25 01:55 UTC.
Position N 40°38' W 074°10'.

Length 31 m.

Type: Tug. MMSI: 366945680.

Date/timePositionNaut miles runAvg speedWind from/ knotsBaromVisibWave heightAir tempDewpointWater temp
2014-Nov-25 01:33N 40°38' W 074°10'0 0.0
2014-Nov-25 00:33N 40°38' W 074°10'0 0.0
2014-Nov-24 23:33N 40°38' W 074°10'3 3.4
2014-Nov-24 22:33N 40°42' W 074°08'3 3.2
2014-Nov-24 21:31N 40°38' W 074°10'2 2.1
2014-Nov-24 20:32N 40°39' W 074°07'12 0.8
2014-Nov-24 05:05N 40°27' W 074°03'0 0.0
2014-Nov-24 04:33N 40°27' W 074°03'0 0.0
2014-Nov-23 23:30N 40°27' W 074°03'0 0.0
2014-Nov-23 22:23N 40°27' W 074°03'0 0.0
2014-Nov-23 17:19N 40°27' W 074°03'0 0.0
2014-Nov-22 15:14N 40°27' W 074°03'0 0.0
2014-Nov-22 10:05N 40°27' W 074°03'0 0.0
2014-Nov-22 09:27N 40°27' W 074°03'0 0.0
2014-Nov-22 02:19N 40°27' W 074°03'  
2014-Nov-18 14:24N 40°27' W 074°03'0 0.0
2014-Nov-18 12:22N 40°27' W 074°03'0 0.0
2014-Nov-17 21:15N 40°27' W 074°03'0 0.0
2014-Nov-17 20:26N 40°27' W 074°03'0 0.0
2014-Nov-17 19:22N 40°27' W 074°03'0 0.0
2014-Nov-17 15:15N 40°27' W 074°03'0 0.0
2014-Nov-16 16:04N 40°27' W 074°03'0 0.4
2014-Nov-16 15:08N 40°27' W 074°03'0 0.7
2014-Nov-16 14:32N 40°28' W 074°03'1 0.7
2014-Nov-16 13:32N 40°29' W 074°03'9 9.1
2014-Nov-16 12:33N 40°37' W 074°03'5 4.9
2014-Nov-16 11:33N 40°38' W 074°10'0 0.0
2014-Nov-16 10:33N 40°38' W 074°10'0 0.0
2014-Nov-16 09:33N 40°38' W 074°10'0 0.0
2014-Nov-16 08:33N 40°38' W 074°10'0 0.0
2014-Nov-16 07:33N 40°38' W 074°10'0 0.0
2014-Nov-16 06:33N 40°38' W 074°10'0 0.3
2014-Nov-16 05:33N 40°38' W 074°09'0 0.3
2014-Nov-16 04:32N 40°38' W 074°10'0 0.0
2014-Nov-16 03:33N 40°38' W 074°10'0 0.0
2014-Nov-16 02:33N 40°38' W 074°10'0 0.0
2014-Nov-16 01:33N 40°38' W 074°10'1 1.3
2014-Nov-16 00:33N 40°39' W 074°08'1 1.1
2014-Nov-15 23:29N 40°39' W 074°07'1 1.2
2014-Nov-15 22:17N 40°39' W 074°08'1 1.0
2014-Nov-15 21:33N 40°38' W 074°08'0 0.0
2014-Nov-15 20:33N 40°38' W 074°08'3 3.5
2014-Nov-15 19:33N 40°41' W 074°04'0 0.1
2014-Nov-15 18:33N 40°41' W 074°04'1 0.9
2014-Nov-15 17:33N 40°40' W 074°05'5 5.3
2014-Nov-15 16:33N 40°45' W 074°01'1 0.8
2014-Nov-15 15:33N 40°45' W 074°01'6 6.2
2014-Nov-15 14:33N 40°40' W 074°04'5 4.6
2014-Nov-15 13:33N 40°38' W 074°10'0 0.1
2014-Nov-15 12:33N 40°39' W 074°10'1 0.7
2014-Nov-15 11:31N 40°39' W 074°09'4 4.6
2014-Nov-15 10:33N 40°38' W 074°03'2 2.2
2014-Nov-15 09:33N 40°40' W 074°04'0 0.0
2014-Nov-15 08:33N 40°40' W 074°04'0 0.0
2014-Nov-15 07:33N 40°40' W 074°04'1 1.1
2014-Nov-15 06:33N 40°39' W 074°05'2 2.0
2014-Nov-15 05:33N 40°38' W 074°08'4 1.2
2014-Nov-15 02:33N 40°37' W 074°12'  
Track history (hours):
 
Tides and Currents Weather Stations Pressure Air Temp Water Temp Dewpoint Dewpoint Depression Visibility Wind Speed Wind Dir Waves Ship Positions

Elizabeth Mc Allister

Owner: MC ALLISTER TOWING & TRANSPORTATION INC, NEW YORK, NY. More information available from US FCC via Universal Licensing System and Coast Guard Vessel Documentation Center.

Last reported at 2014-Nov-25 01:33 UTC. Time now 2014-Nov-25 01:55 UTC.
Position N 40°38' W 074°10'.

Length 31 m.

Type: Tug. MMSI: 366945680.

Date/timePositionNaut miles runAvg speedWind from/ knotsBaromVisibWave heightAir tempDewpointWater temp
2014-Nov-25 01:33N 40°38' W 074°10'0 0.0
2014-Nov-25 00:33N 40°38' W 074°10'0 0.0
2014-Nov-24 23:33N 40°38' W 074°10'3 3.4
2014-Nov-24 22:33N 40°42' W 074°08'3 3.2
2014-Nov-24 21:31N 40°38' W 074°10'2 2.1
2014-Nov-24 20:32N 40°39' W 074°07'12 0.8
2014-Nov-24 05:05N 40°27' W 074°03'0 0.0
2014-Nov-24 04:33N 40°27' W 074°03'0 0.0
2014-Nov-23 23:30N 40°27' W 074°03'0 0.0
2014-Nov-23 22:23N 40°27' W 074°03'0 0.0
2014-Nov-23 17:19N 40°27' W 074°03'0 0.0
2014-Nov-22 15:14N 40°27' W 074°03'0 0.0
2014-Nov-22 10:05N 40°27' W 074°03'0 0.0
2014-Nov-22 09:27N 40°27' W 074°03'0 0.0
2014-Nov-22 02:19N 40°27' W 074°03'  
2014-Nov-18 14:24N 40°27' W 074°03'0 0.0
2014-Nov-18 12:22N 40°27' W 074°03'0 0.0
2014-Nov-17 21:15N 40°27' W 074°03'0 0.0
2014-Nov-17 20:26N 40°27' W 074°03'0 0.0
2014-Nov-17 19:22N 40°27' W 074°03'0 0.0
2014-Nov-17 15:15N 40°27' W 074°03'0 0.0
2014-Nov-16 16:04N 40°27' W 074°03'0 0.4
2014-Nov-16 15:08N 40°27' W 074°03'0 0.7
2014-Nov-16 14:32N 40°28' W 074°03'1 0.7
2014-Nov-16 13:32N 40°29' W 074°03'9 9.1
2014-Nov-16 12:33N 40°37' W 074°03'5 4.9
2014-Nov-16 11:33N 40°38' W 074°10'0 0.0
2014-Nov-16 10:33N 40°38' W 074°10'0 0.0
2014-Nov-16 09:33N 40°38' W 074°10'0 0.0
2014-Nov-16 08:33N 40°38' W 074°10'0 0.0
2014-Nov-16 07:33N 40°38' W 074°10'0 0.0
2014-Nov-16 06:33N 40°38' W 074°10'0 0.3
2014-Nov-16 05:33N 40°38' W 074°09'0 0.3
2014-Nov-16 04:32N 40°38' W 074°10'0 0.0
2014-Nov-16 03:33N 40°38' W 074°10'0 0.0
2014-Nov-16 02:33N 40°38' W 074°10'0 0.0
2014-Nov-16 01:33N 40°38' W 074°10'1 1.3
2014-Nov-16 00:33N 40°39' W 074°08'1 1.1
2014-Nov-15 23:29N 40°39' W 074°07'1 1.2
2014-Nov-15 22:17N 40°39' W 074°08'1 1.0
2014-Nov-15 21:33N 40°38' W 074°08'0 0.0
2014-Nov-15 20:33N 40°38' W 074°08'3 3.5
2014-Nov-15 19:33N 40°41' W 074°04'0 0.1
2014-Nov-15 18:33N 40°41' W 074°04'1 0.9
2014-Nov-15 17:33N 40°40' W 074°05'5 5.3
2014-Nov-15 16:33N 40°45' W 074°01'1 0.8
2014-Nov-15 15:33N 40°45' W 074°01'6 6.2
2014-Nov-15 14:33N 40°40' W 074°04'5 4.6
2014-Nov-15 13:33N 40°38' W 074°10'0 0.1
2014-Nov-15 12:33N 40°39' W 074°10'1 0.7
2014-Nov-15 11:31N 40°39' W 074°09'4 4.6
2014-Nov-15 10:33N 40°38' W 074°03'2 2.2
2014-Nov-15 09:33N 40°40' W 074°04'0 0.0
2014-Nov-15 08:33N 40°40' W 074°04'0 0.0
2014-Nov-15 07:33N 40°40' W 074°04'1 1.1
2014-Nov-15 06:33N 40°39' W 074°05'2 2.0
2014-Nov-15 05:33N 40°38' W 074°08'4 1.2
2014-Nov-15 02:33N 40°37' W 074°12'  

Dump ship's entire track history